Crystal City, MO (63019)

9:47 AM CST on March 01, 2015 (GMT -0600)
APRSWXNET Pevely MO US | Change Station
CLOSE
Current Station
Personal Weather Station
Location: Pevely, MO
Elevation: 453 ft
Nearby Weather Stations
Active Advisory: Winter Storm Warning Active Notice: Local Storm Report

Elev 453 ft 38.28 °N, 90.46 °W | Updated 41 minutes ago

Fog
Fog
28 °F
Feels Like 28 °F
N
0
Wind Variable Wind from SW
Gusts 0.0 mph

Today
High -- | Low -- °F
--% Chance of Precip.
Yesterday
High -- | Low -- °F
Precip. -- in
6:33 AM 5:54 PM
Waxing Gibbous, 85% visible
Pressure 30.40 in
Visibility 3.0 miles
Clouds Scattered Clouds 500 ft
Overcast 1200 ft
Windchill 28 °F
Dew Point 27 °F
Humidity 95%
Rainfall 0.00 in
Snow Depth Not available.
UV 1 out of 12
Pollen .70 out of 12
Air Quality Not available.
Flu Activity Not available.
SPECI KCPS 011532Z 25004KT 3SM BR SCT005 OVC012 M02/M03 A3040 RMK AO2 T10171028

More Conditions Fewer Conditions

Pressure 30.40 in
Visibility 3.0 miles
Clouds Scattered Clouds 500 ft
Overcast 1200 ft
Windchill 28 °F
Dew Point 27 °F
Humidity 95%
Rainfall 0.00 in
Snow Depth Not available.
UV 1 out of 12
Pollen .70 out of 12
Air Quality Not available.
Flu Activity Not available.
SPECI KCPS 011532Z 25004KT 3SM BR SCT005 OVC012 M02/M03 A3040 RMK AO2 T10171028

More Conditions Fewer Conditions

10-Day Weather Forecast

Almanac

Astronomy

Mar. 01, 2015 Rise Set
Actual Time
Civil Twilight
Nautical Twilight
Astronomical Twilight
Moon
Length of Visible Light
Length of Day
Tomorrow will be .
, % of the Moon is Illuminated

Today's Extremes

State Highs State Lows

Community

WunderPhotos

Upload Photos

1,801,435 photos uploaded!

WunderBlogs® & News

Nearby

Air Quality

  Air Quality AQ Index Pollutant
Not available.

Snow Depth

Station Depth Elevation

Earthquake Activity

City Distance Mag. Time & Date
Minimum magnitude displayed is 2.5.

Coastal Water Temperatures

Place Temperature

Nearby Weather Stations

Winter Storm Warning
Statement as of 4:25 AM CST on March 01, 2015

... Winter Storm Warning remains in effect until 6 PM CST this
evening...

* timing... snow will gradually diminish today... possibly mixing
with sleet or freezing drizzle for a brief period.

* Accumulations... 5 to 8 inches of snow.

* Winds... west 5 mph or less.

* Impacts... the wintry precipitation will result in hazardous
travel conditions... especially on bridges... overpasses... and
untreated roads. Parking lots and sidewalks will become
slippery as well.

Precautionary/preparedness actions...

A Winter Storm Warning means that 6 inches or more of snow is
expected. The accumulation of snow will make travel extremely
difficult... if not impossible. If travel is necessary... make sure
to exercise caution. Begin your travel with a tank full of
gas... and carry a winter storm kit which includes a shovel...
flashlight... cellphone... and blankets of extra warm clothing.